TimePDT,TemperatureF,Dew PointF,Humidity,Sea Level PressureIn,VisibilityMPH,Wind Direction,Wind SpeedMPH,Gust SpeedMPH,PrecipitationIn,Events,Conditions,WindDirDegrees,DateUTC
12:53 AM,50.0,44.1,80,30.16,10.0,Calm,Calm,-,N/A,,Overcast,0,2011-10-24 07:53:00
1:53 AM,48.9,44.1,83,30.17,10.0,SE,4.6,-,N/A,,Mostly Cloudy,130,2011-10-24 08:53:00
2:53 AM,48.9,45.0,86,30.19,10.0,Calm,Calm,-,N/A,,Mostly Cloudy,0,2011-10-24 09:53:00
3:00 AM,48.2,44.6,87,30.19,10.0,SE,4.6,-,N/A,,Overcast,130,2011-10-24 10:00:00
3:53 AM,48.9,46.0,90,30.19,10.0,SE,5.8,-,N/A,,Overcast,130,2011-10-24 10:53:00
4:10 AM,48.2,44.6,87,30.20,10.0,SE,6.9,-,N/A,,Overcast,130,2011-10-24 11:10:00
4:53 AM,48.0,46.0,93,30.21,10.0,SE,6.9,-,N/A,,Overcast,140,2011-10-24 11:53:00
4:59 AM,48.2,46.4,93,30.21,10.0,ESE,4.6,-,N/A,,Overcast,120,2011-10-24 11:59:00
5:53 AM,48.0,46.0,93,30.22,10.0,ESE,4.6,-,0.01,,Overcast,110,2011-10-24 12:53:00
6:00 AM,48.2,46.4,93,30.22,10.0,Variable,3.5,-,N/A,,Mostly Cloudy,0,2011-10-24 13:00:00
6:53 AM,46.0,44.1,93,30.24,10.0,Calm,Calm,-,N/A,,Mostly Cloudy,0,2011-10-24 13:53:00
7:53 AM,45.0,43.0,93,30.25,10.0,ESE,4.6,-,N/A,,Mostly Cloudy,120,2011-10-24 14:53:00
8:53 AM,46.9,44.1,90,30.27,10.0,SE,5.8,-,0.00,Rain,Light Rain,130,2011-10-24 15:53:00
9:53 AM,48.0,44.1,86,30.30,10.0,SE,5.8,-,0.01,,Mostly Cloudy,130,2011-10-24 16:53:00
10:53 AM,50.0,43.0,77,30.31,10.0,ESE,5.8,-,N/A,,Partly Cloudy,120,2011-10-24 17:53:00
11:53 AM,51.8,42.8,71,30.32,10.0,Variable,3.5,-,N/A,,Scattered Clouds,0,2011-10-24 18:53:00
12:53 PM,53.1,42.1,66,30.32,10.0,Variable,4.6,-,N/A,,Scattered Clouds,0,2011-10-24 19:53:00
1:53 PM,55.0,42.1,62,30.32,10.0,SSE,5.8,-,N/A,,Mostly Cloudy,150,2011-10-24 20:53:00
2:53 PM,55.0,39.9,57,30.31,10.0,Calm,Calm,-,N/A,,Partly Cloudy,0,2011-10-24 21:53:00
3:53 PM,55.0,39.9,57,30.32,10.0,ENE,3.5,-,N/A,,Scattered Clouds,60,2011-10-24 22:53:00
4:53 PM,55.9,42.1,60,30.32,10.0,Calm,Calm,-,N/A,,Scattered Clouds,0,2011-10-24 23:53:00
5:53 PM,54.0,42.1,64,30.32,10.0,Calm,Calm,-,N/A,,Partly Cloudy,0,2011-10-25 00:53:00
6:53 PM,51.8,42.8,71,30.34,10.0,Calm,Calm,-,N/A,,Partly Cloudy,0,2011-10-25 01:53:00
7:53 PM,48.0,42.1,80,30.35,10.0,Calm,Calm,-,N/A,,Clear,0,2011-10-25 02:53:00
8:53 PM,46.4,42.8,87,30.36,10.0,Calm,Calm,-,N/A,,Scattered Clouds,0,2011-10-25 03:53:00
9:53 PM,48.9,44.1,83,30.38,10.0,Calm,Calm,-,N/A,,Overcast,0,2011-10-25 04:53:00
10:53 PM,46.4,42.8,87,30.39,10.0,Calm,Calm,-,N/A,,Mostly Cloudy,0,2011-10-25 05:53:00
11:53 PM,45.0,42.1,90,30.39,10.0,Calm,Calm,-,N/A,,Clear,0,2011-10-25 06:53:00